sensor_id;sensor_type;location;lat;lon;timestamp;temperature;humidity
38866;DHT22;62686;48.984;8.394;2022-11-20T00:01:24;5.00;99.80
38866;DHT22;62686;48.984;8.394;2022-11-20T00:03:54;5.00;99.70
38866;DHT22;62686;48.984;8.394;2022-11-20T00:06:23;5.00;99.60
38866;DHT22;62686;48.984;8.394;2022-11-20T00:08:53;5.00;99.60
38866;DHT22;62686;48.984;8.394;2022-11-20T00:11:23;5.00;99.80
38866;DHT22;62686;48.984;8.394;2022-11-20T00:13:53;5.10;99.90
38866;DHT22;62686;48.984;8.394;2022-11-20T00:16:24;5.10;99.90
38866;DHT22;62686;48.984;8.394;2022-11-20T00:18:53;5.10;99.90
38866;DHT22;62686;48.984;8.394;2022-11-20T00:21:23;5.10;99.90
38866;DHT22;62686;48.984;8.394;2022-11-20T00:23:53;5.10;99.90
38866;DHT22;62686;48.984;8.394;2022-11-20T00:26:23;5.10;99.90
38866;DHT22;62686;48.984;8.394;2022-11-20T00:28:53;5.10;99.60
38866;DHT22;62686;48.984;8.394;2022-11-20T00:31:22;5.10;99.60
38866;DHT22;62686;48.984;8.394;2022-11-20T00:33:51;5.10;99.20
38866;DHT22;62686;48.984;8.394;2022-11-20T00:36:21;5.00;99.40
38866;DHT22;62686;48.984;8.394;2022-11-20T00:38:51;5.10;99.10
38866;DHT22;62686;48.984;8.394;2022-11-20T00:41:20;5.10;99.00
38866;DHT22;62686;48.984;8.394;2022-11-20T00:43:48;5.10;98.90
38866;DHT22;62686;48.984;8.394;2022-11-20T00:46:19;5.10;98.90
38866;DHT22;62686;48.984;8.394;2022-11-20T00:48:49;5.10;98.90
38866;DHT22;62686;48.984;8.394;2022-11-20T00:51:19;5.20;99.00
38866;DHT22;62686;48.984;8.394;2022-11-20T00:53:47;5.20;99.00
38866;DHT22;62686;48.984;8.394;2022-11-20T00:56:18;5.10;99.00
38866;DHT22;62686;48.984;8.394;2022-11-20T00:58:47;5.20;99.10
38866;DHT22;62686;48.984;8.394;2022-11-20T01:01:17;5.20;99.00
38866;DHT22;62686;48.984;8.394;2022-11-20T01:03:48;5.20;99.00
38866;DHT22;62686;48.984;8.394;2022-11-20T01:06:18;5.20;99.00
38866;DHT22;62686;48.984;8.394;2022-11-20T01:08:48;5.20;98.90
38866;DHT22;62686;48.984;8.394;2022-11-20T01:11:18;5.20;98.90
38866;DHT22;62686;48.984;8.394;2022-11-20T01:13:49;5.30;99.00
38866;DHT22;62686;48.984;8.394;2022-11-20T01:16:19;5.30;99.00
38866;DHT22;62686;48.984;8.394;2022-11-20T01:18:50;5.30;99.00
38866;DHT22;62686;48.984;8.394;2022-11-20T01:21:20;5.30;99.10
38866;DHT22;62686;48.984;8.394;2022-11-20T01:23:49;5.40;99.10
38866;DHT22;62686;48.984;8.394;2022-11-20T01:26:20;5.40;99.40
38866;DHT22;62686;48.984;8.394;2022-11-20T01:28:49;5.40;99.10
38866;DHT22;62686;48.984;8.394;2022-11-20T01:31:20;5.40;99.10
38866;DHT22;62686;48.984;8.394;2022-11-20T01:33:51;5.40;99.10
38866;DHT22;62686;48.984;8.394;2022-11-20T01:36:21;5.40;99.10
38866;DHT22;62686;48.984;8.394;2022-11-20T01:38:51;5.40;99.20
38866;DHT22;62686;48.984;8.394;2022-11-20T01:41:20;5.40;99.20
38866;DHT22;62686;48.984;8.394;2022-11-20T01:44:06;5.50;99.30
38866;DHT22;62686;48.984;8.394;2022-11-20T01:46:35;5.50;99.30
38866;DHT22;62686;48.984;8.394;2022-11-20T01:49:11;5.50;99.30
38866;DHT22;62686;48.984;8.394;2022-11-20T01:51:45;5.40;99.00
38866;DHT22;62686;48.984;8.394;2022-11-20T01:54:19;5.40;98.80
38866;DHT22;62686;48.984;8.394;2022-11-20T01:56:48;5.30;98.70
38866;DHT22;62686;48.984;8.394;2022-11-20T01:59:19;5.40;98.90
38866;DHT22;62686;48.984;8.394;2022-11-20T02:01:48;5.40;99.10
38866;DHT22;62686;48.984;8.394;2022-11-20T02:04:18;5.40;99.10
38866;DHT22;62686;48.984;8.394;2022-11-20T02:06:49;5.40;99.20
38866;DHT22;62686;48.984;8.394;2022-11-20T02:09:17;5.40;99.60
38866;DHT22;62686;48.984;8.394;2022-11-20T02:11:46;5.60;99.90
38866;DHT22;62686;48.984;8.394;2022-11-20T02:14:15;5.80;99.90
38866;DHT22;62686;48.984;8.394;2022-11-20T02:16:45;5.90;99.90
38866;DHT22;62686;48.984;8.394;2022-11-20T02:19:21;6.00;99.90
38866;DHT22;62686;48.984;8.394;2022-11-20T02:21:56;6.10;99.90
38866;DHT22;62686;48.984;8.394;2022-11-20T02:24:29;6.20;99.90
38866;DHT22;62686;48.984;8.394;2022-11-20T02:26:59;6.20;99.90
38866;DHT22;62686;48.984;8.394;2022-11-20T02:29:33;6.30;99.90
38866;DHT22;62686;48.984;8.394;2022-11-20T02:32:03;6.40;99.90
38866;DHT22;62686;48.984;8.394;2022-11-20T02:34:32;6.40;99.90
38866;DHT22;62686;48.984;8.394;2022-11-20T02:37:00;6.50;99.90
38866;DHT22;62686;48.984;8.394;2022-11-20T02:39:30;6.50;99.90
38866;DHT22;62686;48.984;8.394;2022-11-20T02:42:00;6.60;99.90
38866;DHT22;62686;48.984;8.394;2022-11-20T02:44:28;6.60;99.90
38866;DHT22;62686;48.984;8.394;2022-11-20T02:46:57;6.70;99.90
38866;DHT22;62686;48.984;8.394;2022-11-20T02:49:25;6.70;99.90
38866;DHT22;62686;48.984;8.394;2022-11-20T02:51:54;6.70;99.90
38866;DHT22;62686;48.984;8.394;2022-11-20T02:54:22;6.80;99.90
38866;DHT22;62686;48.984;8.394;2022-11-20T02:56:52;6.80;99.90
38866;DHT22;62686;48.984;8.394;2022-11-20T02:59:20;6.80;99.10
38866;DHT22;62686;48.984;8.394;2022-11-20T03:01:48;6.80;98.30
38866;DHT22;62686;48.984;8.394;2022-11-20T03:04:16;6.80;97.70
38866;DHT22;62686;48.984;8.394;2022-11-20T03:06:44;6.80;97.10
38866;DHT22;62686;48.984;8.394;2022-11-20T03:09:13;6.80;96.70
38866;DHT22;62686;48.984;8.394;2022-11-20T03:11:41;6.80;96.60
38866;DHT22;62686;48.984;8.394;2022-11-20T03:14:12;6.80;96.70
38866;DHT22;62686;48.984;8.394;2022-11-20T03:16:40;6.80;97.00
38866;DHT22;62686;48.984;8.394;2022-11-20T03:19:09;6.80;97.00
38866;DHT22;62686;48.984;8.394;2022-11-20T03:21:37;6.80;96.70
38866;DHT22;62686;48.984;8.394;2022-11-20T03:24:06;6.90;96.60
38866;DHT22;62686;48.984;8.394;2022-11-20T03:26:34;6.90;96.20
38866;DHT22;62686;48.984;8.394;2022-11-20T03:29:04;7.00;95.50
38866;DHT22;62686;48.984;8.394;2022-11-20T03:31:35;7.00;94.70
38866;DHT22;62686;48.984;8.394;2022-11-20T03:34:04;7.00;94.40
38866;DHT22;62686;48.984;8.394;2022-11-20T03:36:33;7.00;94.40
38866;DHT22;62686;48.984;8.394;2022-11-20T03:39:01;7.00;94.00
38866;DHT22;62686;48.984;8.394;2022-11-20T03:41:30;7.00;93.20
38866;DHT22;62686;48.984;8.394;2022-11-20T03:44:00;7.00;93.50
38866;DHT22;62686;48.984;8.394;2022-11-20T03:46:29;7.00;92.70
38866;DHT22;62686;48.984;8.394;2022-11-20T03:48:59;7.10;91.50
38866;DHT22;62686;48.984;8.394;2022-11-20T03:51:29;7.10;90.80
38866;DHT22;62686;48.984;8.394;2022-11-20T03:53:58;7.10;92.00
38866;DHT22;62686;48.984;8.394;2022-11-20T03:56:28;7.10;91.00
38866;DHT22;62686;48.984;8.394;2022-11-20T03:58:57;7.20;89.80
38866;DHT22;62686;48.984;8.394;2022-11-20T04:01:27;7.20;87.80
38866;DHT22;62686;48.984;8.394;2022-11-20T04:03:56;7.10;86.50
38866;DHT22;62686;48.984;8.394;2022-11-20T04:06:27;7.10;88.10
38866;DHT22;62686;48.984;8.394;2022-11-20T04:08:56;7.10;88.20
38866;DHT22;62686;48.984;8.394;2022-11-20T04:11:26;7.10;89.90
38866;DHT22;62686;48.984;8.394;2022-11-20T04:13:56;7.10;89.80
38866;DHT22;62686;48.984;8.394;2022-11-20T04:16:26;7.10;87.70
38866;DHT22;62686;48.984;8.394;2022-11-20T04:18:55;7.20;87.90
38866;DHT22;62686;48.984;8.394;2022-11-20T04:21:25;7.20;83.50
38866;DHT22;62686;48.984;8.394;2022-11-20T04:23:54;7.20;82.50
38866;DHT22;62686;48.984;8.394;2022-11-20T04:26:24;7.20;84.40
38866;DHT22;62686;48.984;8.394;2022-11-20T04:28:52;7.20;87.70
38866;DHT22;62686;48.984;8.394;2022-11-20T04:31:22;7.20;88.60
38866;DHT22;62686;48.984;8.394;2022-11-20T04:33:50;7.10;89.30
38866;DHT22;62686;48.984;8.394;2022-11-20T04:36:20;7.00;90.60
38866;DHT22;62686;48.984;8.394;2022-11-20T04:38:52;7.00;92.00
38866;DHT22;62686;48.984;8.394;2022-11-20T04:41:24;7.00;91.60
38866;DHT22;62686;48.984;8.394;2022-11-20T04:43:53;7.10;91.70
38866;DHT22;62686;48.984;8.394;2022-11-20T04:46:27;7.10;91.10
38866;DHT22;62686;48.984;8.394;2022-11-20T04:48:55;7.10;90.50
38866;DHT22;62686;48.984;8.394;2022-11-20T04:51:23;7.10;90.40
38866;DHT22;62686;48.984;8.394;2022-11-20T04:53:53;7.10;90.40
38866;DHT22;62686;48.984;8.394;2022-11-20T04:56:22;7.10;90.00
38866;DHT22;62686;48.984;8.394;2022-11-20T04:58:50;7.10;90.40
38866;DHT22;62686;48.984;8.394;2022-11-20T05:01:21;7.10;90.20
38866;DHT22;62686;48.984;8.394;2022-11-20T05:03:50;7.10;90.20
38866;DHT22;62686;48.984;8.394;2022-11-20T05:06:20;7.10;90.00
38866;DHT22;62686;48.984;8.394;2022-11-20T05:08:48;7.10;90.40
38866;DHT22;62686;48.984;8.394;2022-11-20T05:11:19;7.10;90.00
38866;DHT22;62686;48.984;8.394;2022-11-20T05:13:48;7.20;88.80
38866;DHT22;62686;48.984;8.394;2022-11-20T05:16:18;7.20;84.80
38866;DHT22;62686;48.984;8.394;2022-11-20T05:18:47;7.20;82.10
38866;DHT22;62686;48.984;8.394;2022-11-20T05:21:15;7.20;82.80
38866;DHT22;62686;48.984;8.394;2022-11-20T05:23:44;7.20;83.10
38866;DHT22;62686;48.984;8.394;2022-11-20T05:26:14;7.20;84.10
38866;DHT22;62686;48.984;8.394;2022-11-20T05:28:45;7.20;79.30
38866;DHT22;62686;48.984;8.394;2022-11-20T05:31:15;7.20;80.50
38866;DHT22;62686;48.984;8.394;2022-11-20T05:33:45;7.20;81.80
38866;DHT22;62686;48.984;8.394;2022-11-20T05:36:14;7.10;82.70
38866;DHT22;62686;48.984;8.394;2022-11-20T05:38:43;7.10;84.30
38866;DHT22;62686;48.984;8.394;2022-11-20T05:41:15;7.10;83.40
38866;DHT22;62686;48.984;8.394;2022-11-20T05:43:46;7.10;81.30
38866;DHT22;62686;48.984;8.394;2022-11-20T05:46:16;7.10;82.00
38866;DHT22;62686;48.984;8.394;2022-11-20T05:48:46;7.10;80.90
38866;DHT22;62686;48.984;8.394;2022-11-20T05:51:16;7.20;81.40
38866;DHT22;62686;48.984;8.394;2022-11-20T05:53:45;7.10;80.20
38866;DHT22;62686;48.984;8.394;2022-11-20T05:56:15;7.10;80.90
38866;DHT22;62686;48.984;8.394;2022-11-20T05:58:45;7.10;81.60
38866;DHT22;62686;48.984;8.394;2022-11-20T06:01:15;7.10;79.00
38866;DHT22;62686;48.984;8.394;2022-11-20T06:03:43;7.10;81.90
38866;DHT22;62686;48.984;8.394;2022-11-20T06:06:14;7.20;78.60
38866;DHT22;62686;48.984;8.394;2022-11-20T06:08:42;7.10;78.10
38866;DHT22;62686;48.984;8.394;2022-11-20T06:11:12;7.10;77.10
38866;DHT22;62686;48.984;8.394;2022-11-20T06:13:41;7.20;74.30
38866;DHT22;62686;48.984;8.394;2022-11-20T06:16:11;7.20;71.70
38866;DHT22;62686;48.984;8.394;2022-11-20T06:18:39;7.20;69.50
38866;DHT22;62686;48.984;8.394;2022-11-20T06:21:10;7.20;68.50
38866;DHT22;62686;48.984;8.394;2022-11-20T06:23:39;7.20;71.20
38866;DHT22;62686;48.984;8.394;2022-11-20T06:26:09;7.20;71.30
38866;DHT22;62686;48.984;8.394;2022-11-20T06:28:38;7.30;64.80
38866;DHT22;62686;48.984;8.394;2022-11-20T06:31:07;7.30;65.10
38866;DHT22;62686;48.984;8.394;2022-11-20T06:33:37;7.30;67.40
38866;DHT22;62686;48.984;8.394;2022-11-20T06:36:05;7.30;67.60
38866;DHT22;62686;48.984;8.394;2022-11-20T06:38:36;7.30;69.20
38866;DHT22;62686;48.984;8.394;2022-11-20T06:41:04;7.30;64.90
38866;DHT22;62686;48.984;8.394;2022-11-20T06:43:32;7.20;67.40
38866;DHT22;62686;48.984;8.394;2022-11-20T06:46:01;7.30;67.00
38866;DHT22;62686;48.984;8.394;2022-11-20T06:48:29;7.20;70.60
38866;DHT22;62686;48.984;8.394;2022-11-20T06:50:59;7.20;69.40
38866;DHT22;62686;48.984;8.394;2022-11-20T06:53:27;7.30;69.80
38866;DHT22;62686;48.984;8.394;2022-11-20T06:55:56;7.30;70.70
38866;DHT22;62686;48.984;8.394;2022-11-20T06:58:27;7.30;70.60
38866;DHT22;62686;48.984;8.394;2022-11-20T07:00:58;7.30;69.40
38866;DHT22;62686;48.984;8.394;2022-11-20T07:03:26;7.30;69.90
38866;DHT22;62686;48.984;8.394;2022-11-20T07:05:55;7.30;71.20
38866;DHT22;62686;48.984;8.394;2022-11-20T07:08:25;7.30;71.20
38866;DHT22;62686;48.984;8.394;2022-11-20T07:10:57;7.40;68.80
38866;DHT22;62686;48.984;8.394;2022-11-20T07:13:26;7.40;68.60
38866;DHT22;62686;48.984;8.394;2022-11-20T07:15:54;7.40;69.10
38866;DHT22;62686;48.984;8.394;2022-11-20T07:18:23;7.40;72.40
38866;DHT22;62686;48.984;8.394;2022-11-20T07:20:51;7.40;72.60
38866;DHT22;62686;48.984;8.394;2022-11-20T07:23:19;7.40;76.30
38866;DHT22;62686;48.984;8.394;2022-11-20T07:25:48;7.30;80.20
38866;DHT22;62686;48.984;8.394;2022-11-20T07:28:17;7.30;83.80
38866;DHT22;62686;48.984;8.394;2022-11-20T07:30:49;7.20;87.30
38866;DHT22;62686;48.984;8.394;2022-11-20T07:33:19;7.20;88.30
38866;DHT22;62686;48.984;8.394;2022-11-20T07:35:47;7.20;89.40
38866;DHT22;62686;48.984;8.394;2022-11-20T07:38:15;7.20;89.00
38866;DHT22;62686;48.984;8.394;2022-11-20T07:40:44;7.20;90.20
38866;DHT22;62686;48.984;8.394;2022-11-20T07:43:13;7.10;90.50
38866;DHT22;62686;48.984;8.394;2022-11-20T07:45:41;7.20;91.50
38866;DHT22;62686;48.984;8.394;2022-11-20T07:48:09;7.10;90.60
38866;DHT22;62686;48.984;8.394;2022-11-20T07:50:38;7.20;90.70
38866;DHT22;62686;48.984;8.394;2022-11-20T07:53:06;7.20;90.90
38866;DHT22;62686;48.984;8.394;2022-11-20T07:55:34;7.20;90.20
38866;DHT22;62686;48.984;8.394;2022-11-20T07:58:02;7.20;90.30
38866;DHT22;62686;48.984;8.394;2022-11-20T08:00:32;7.20;90.60
38866;DHT22;62686;48.984;8.394;2022-11-20T08:03:03;7.30;90.60
38866;DHT22;62686;48.984;8.394;2022-11-20T08:05:31;7.30;91.40
38866;DHT22;62686;48.984;8.394;2022-11-20T08:07:59;7.20;92.80
38866;DHT22;62686;48.984;8.394;2022-11-20T08:10:28;7.30;92.40
38866;DHT22;62686;48.984;8.394;2022-11-20T08:12:56;7.30;93.30
38866;DHT22;62686;48.984;8.394;2022-11-20T08:15:48;7.30;93.50
38866;DHT22;62686;48.984;8.394;2022-11-20T08:18:17;7.30;93.70
38866;DHT22;62686;48.984;8.394;2022-11-20T08:21:07;7.30;93.60
38866;DHT22;62686;48.984;8.394;2022-11-20T08:23:52;7.40;93.60
38866;DHT22;62686;48.984;8.394;2022-11-20T08:26:21;7.40;94.80
38866;DHT22;62686;48.984;8.394;2022-11-20T08:28:53;7.30;94.40
38866;DHT22;62686;48.984;8.394;2022-11-20T08:31:23;7.30;94.90
38866;DHT22;62686;48.984;8.394;2022-11-20T08:33:52;7.40;95.00
38866;DHT22;62686;48.984;8.394;2022-11-20T08:36:21;7.40;93.90
38866;DHT22;62686;48.984;8.394;2022-11-20T08:38:51;7.40;92.70
38866;DHT22;62686;48.984;8.394;2022-11-20T08:41:20;7.50;93.20
38866;DHT22;62686;48.984;8.394;2022-11-20T08:43:56;7.50;92.40
38866;DHT22;62686;48.984;8.394;2022-11-20T08:46:27;7.50;92.10
38866;DHT22;62686;48.984;8.394;2022-11-20T08:48:56;7.50;91.10
38866;DHT22;62686;48.984;8.394;2022-11-20T08:51:24;7.50;91.10
38866;DHT22;62686;48.984;8.394;2022-11-20T08:53:52;7.50;91.30
38866;DHT22;62686;48.984;8.394;2022-11-20T08:56:20;7.50;91.00
38866;DHT22;62686;48.984;8.394;2022-11-20T08:58:50;7.60;91.10
38866;DHT22;62686;48.984;8.394;2022-11-20T09:01:50;7.70;92.00
38866;DHT22;62686;48.984;8.394;2022-11-20T09:04:19;7.70;87.40
38866;DHT22;62686;48.984;8.394;2022-11-20T09:06:47;7.70;87.20
38866;DHT22;62686;48.984;8.394;2022-11-20T09:09:17;7.70;87.60
38866;DHT22;62686;48.984;8.394;2022-11-20T09:11:48;7.60;89.80
38866;DHT22;62686;48.984;8.394;2022-11-20T09:14:17;7.50;91.10
38866;DHT22;62686;48.984;8.394;2022-11-20T09:16:46;7.50;91.60
38866;DHT22;62686;48.984;8.394;2022-11-20T09:19:20;7.50;93.10
38866;DHT22;62686;48.984;8.394;2022-11-20T09:22:04;7.50;94.20
38866;DHT22;62686;48.984;8.394;2022-11-20T09:24:32;7.50;94.80
38866;DHT22;62686;48.984;8.394;2022-11-20T09:27:03;7.60;94.60
38866;DHT22;62686;48.984;8.394;2022-11-20T09:29:31;7.60;93.40
38866;DHT22;62686;48.984;8.394;2022-11-20T09:31:59;7.70;93.60
38866;DHT22;62686;48.984;8.394;2022-11-20T09:34:29;7.70;92.70
38866;DHT22;62686;48.984;8.394;2022-11-20T09:36:57;7.70;91.90
38866;DHT22;62686;48.984;8.394;2022-11-20T09:39:25;7.70;93.00
38866;DHT22;62686;48.984;8.394;2022-11-20T09:44:57;7.60;95.30
38866;DHT22;62686;48.984;8.394;2022-11-20T09:47:38;7.60;96.00
38866;DHT22;62686;48.984;8.394;2022-11-20T09:50:23;7.50;96.00
38866;DHT22;62686;48.984;8.394;2022-11-20T09:53:20;7.40;96.50
38866;DHT22;62686;48.984;8.394;2022-11-20T09:55:52;7.40;97.10
38866;DHT22;62686;48.984;8.394;2022-11-20T09:58:27;7.40;97.70
38866;DHT22;62686;48.984;8.394;2022-11-20T10:01:03;7.50;98.20
38866;DHT22;62686;48.984;8.394;2022-11-20T10:03:41;7.40;98.20
38866;DHT22;62686;48.984;8.394;2022-11-20T10:06:16;7.50;97.30
38866;DHT22;62686;48.984;8.394;2022-11-20T10:08:55;7.50;97.00
38866;DHT22;62686;48.984;8.394;2022-11-20T10:11:34;7.50;96.90
38866;DHT22;62686;48.984;8.394;2022-11-20T10:14:16;7.50;97.60
38866;DHT22;62686;48.984;8.394;2022-11-20T10:16:56;7.60;98.00
38866;DHT22;62686;48.984;8.394;2022-11-20T10:19:38;7.60;98.30
38866;DHT22;62686;48.984;8.394;2022-11-20T10:22:22;7.80;99.00
38866;DHT22;62686;48.984;8.394;2022-11-20T10:24:58;8.10;99.70
38866;DHT22;62686;48.984;8.394;2022-11-20T10:27:56;8.30;99.00
38866;DHT22;62686;48.984;8.394;2022-11-20T10:30:27;8.60;97.00
38866;DHT22;62686;48.984;8.394;2022-11-20T10:33:01;9.00;94.50
38866;DHT22;62686;48.984;8.394;2022-11-20T10:35:35;9.30;90.10
38866;DHT22;62686;48.984;8.394;2022-11-20T10:38:11;9.50;85.20
38866;DHT22;62686;48.984;8.394;2022-11-20T10:40:45;9.50;71.30
38866;DHT22;62686;48.984;8.394;2022-11-20T10:43:17;9.20;65.50
38866;DHT22;62686;48.984;8.394;2022-11-20T10:45:55;9.00;71.50
38866;DHT22;62686;48.984;8.394;2022-11-20T10:48:25;8.80;79.40
38866;DHT22;62686;48.984;8.394;2022-11-20T10:51:10;9.00;83.70
38866;DHT22;62686;48.984;8.394;2022-11-20T10:53:51;9.20;79.90
38866;DHT22;62686;48.984;8.394;2022-11-20T10:56:31;9.40;71.50
38866;DHT22;62686;48.984;8.394;2022-11-20T10:59:35;9.40;59.10
38866;DHT22;62686;48.984;8.394;2022-11-20T11:02:20;9.40;65.60
38866;DHT22;62686;48.984;8.394;2022-11-20T11:04:50;9.60;67.50
38866;DHT22;62686;48.984;8.394;2022-11-20T11:07:23;9.80;54.70
38866;DHT22;62686;48.984;8.394;2022-11-20T11:09:54;10.10;52.80
38866;DHT22;62686;48.984;8.394;2022-11-20T11:12:26;10.10;43.20
38866;DHT22;62686;48.984;8.394;2022-11-20T11:14:56;10.20;45.50
38866;DHT22;62686;48.984;8.394;2022-11-20T11:17:27;10.40;39.00
38866;DHT22;62686;48.984;8.394;2022-11-20T11:19:59;10.50;33.80
38866;DHT22;62686;48.984;8.394;2022-11-20T11:22:29;10.40;25.00
38866;DHT22;62686;48.984;8.394;2022-11-20T11:24:58;10.20;20.40
38866;DHT22;62686;48.984;8.394;2022-11-20T11:27:28;10.10;23.50
38866;DHT22;62686;48.984;8.394;2022-11-20T11:30:11;10.40;24.20
38866;DHT22;62686;48.984;8.394;2022-11-20T11:32:40;10.30;20.20
38866;DHT22;62686;48.984;8.394;2022-11-20T11:35:23;10.70;20.90
38866;DHT22;62686;48.984;8.394;2022-11-20T11:37:54;12.30;1.00
38866;DHT22;62686;48.984;8.394;2022-11-20T11:40:23;14.00;1.00
38866;DHT22;62686;48.984;8.394;2022-11-20T11:42:57;14.30;1.00
38866;DHT22;62686;48.984;8.394;2022-11-20T11:45:27;15.00;1.00
38866;DHT22;62686;48.984;8.394;2022-11-20T11:47:56;15.70;1.00
38866;DHT22;62686;48.984;8.394;2022-11-20T11:50:26;17.30;1.00
38866;DHT22;62686;48.984;8.394;2022-11-20T11:52:59;16.70;1.00
38866;DHT22;62686;48.984;8.394;2022-11-20T11:55:36;15.20;99.90
38866;DHT22;62686;48.984;8.394;2022-11-20T11:58:20;15.20;1.00
38866;DHT22;62686;48.984;8.394;2022-11-20T12:00:57;14.00;99.90
38866;DHT22;62686;48.984;8.394;2022-11-20T12:03:32;13.20;1.00
38866;DHT22;62686;48.984;8.394;2022-11-20T12:06:06;12.30;1.00
38866;DHT22;62686;48.984;8.394;2022-11-20T12:08:43;11.70;1.00
38866;DHT22;62686;48.984;8.394;2022-11-20T12:11:18;11.50;1.00
38866;DHT22;62686;48.984;8.394;2022-11-20T12:13:55;11.40;1.00
38866;DHT22;62686;48.984;8.394;2022-11-20T12:16:24;11.00;1.00
38866;DHT22;62686;48.984;8.394;2022-11-20T12:18:53;10.80;1.00
38866;DHT22;62686;48.984;8.394;2022-11-20T12:21:31;10.40;1.00
38866;DHT22;62686;48.984;8.394;2022-11-20T12:24:15;10.10;1.00
38866;DHT22;62686;48.984;8.394;2022-11-20T12:27:01;9.90;1.00
38866;DHT22;62686;48.984;8.394;2022-11-20T12:29:45;10.00;1.00
38866;DHT22;62686;48.984;8.394;2022-11-20T12:32:41;10.20;1.00
38866;DHT22;62686;48.984;8.394;2022-11-20T12:35:29;10.40;1.00
38866;DHT22;62686;48.984;8.394;2022-11-20T12:38:14;10.60;1.00
38866;DHT22;62686;48.984;8.394;2022-11-20T12:40:55;10.70;1.00
38866;DHT22;62686;48.984;8.394;2022-11-20T12:43:29;10.50;1.00
38866;DHT22;62686;48.984;8.394;2022-11-20T12:46:28;10.50;1.00
38866;DHT22;62686;48.984;8.394;2022-11-20T12:49:07;10.50;1.00
38866;DHT22;62686;48.984;8.394;2022-11-20T12:51:56;10.40;1.00
38866;DHT22;62686;48.984;8.394;2022-11-20T12:54:45;10.30;1.00
38866;DHT22;62686;48.984;8.394;2022-11-20T12:57:20;10.10;1.00
38866;DHT22;62686;48.984;8.394;2022-11-20T13:00:03;10.00;1.00
38866;DHT22;62686;48.984;8.394;2022-11-20T13:02:46;9.90;1.00
38866;DHT22;62686;48.984;8.394;2022-11-20T13:05:28;9.80;1.00
38866;DHT22;62686;48.984;8.394;2022-11-20T13:08:00;9.80;1.00
38866;DHT22;62686;48.984;8.394;2022-11-20T13:10:35;9.90;1.00
38866;DHT22;62686;48.984;8.394;2022-11-20T13:13:12;10.00;1.00
38866;DHT22;62686;48.984;8.394;2022-11-20T13:15:50;10.10;1.00
38866;DHT22;62686;48.984;8.394;2022-11-20T13:18:22;10.40;99.90
38866;DHT22;62686;48.984;8.394;2022-11-20T13:20:50;10.50;99.90
38866;DHT22;62686;48.984;8.394;2022-11-20T13:23:25;10.80;99.90
38866;DHT22;62686;48.984;8.394;2022-11-20T13:26:15;11.20;99.90
38866;DHT22;62686;48.984;8.394;2022-11-20T13:28:45;11.10;99.90
38866;DHT22;62686;48.984;8.394;2022-11-20T13:31:29;10.90;99.90
38866;DHT22;62686;48.984;8.394;2022-11-20T13:34:03;10.90;99.90
38866;DHT22;62686;48.984;8.394;2022-11-20T13:36:32;10.80;99.90
38866;DHT22;62686;48.984;8.394;2022-11-20T13:39:01;10.70;99.90
38866;DHT22;62686;48.984;8.394;2022-11-20T13:41:31;10.50;99.90
38866;DHT22;62686;48.984;8.394;2022-11-20T13:44:10;10.40;99.90
38866;DHT22;62686;48.984;8.394;2022-11-20T13:46:44;10.40;99.90
38866;DHT22;62686;48.984;8.394;2022-11-20T13:49:23;10.50;99.60
38866;DHT22;62686;48.984;8.394;2022-11-20T13:52:03;10.60;99.90
38866;DHT22;62686;48.984;8.394;2022-11-20T13:57:45;10.40;99.90
38866;DHT22;62686;48.984;8.394;2022-11-20T14:00:17;10.10;99.90
38866;DHT22;62686;48.984;8.394;2022-11-20T14:03:06;9.80;99.90
38866;DHT22;62686;48.984;8.394;2022-11-20T14:05:46;9.90;1.00
38866;DHT22;62686;48.984;8.394;2022-11-20T14:08:24;10.30;99.90
38866;DHT22;62686;48.984;8.394;2022-11-20T14:11:03;10.80;99.90
38866;DHT22;62686;48.984;8.394;2022-11-20T14:13:32;10.70;99.90
38866;DHT22;62686;48.984;8.394;2022-11-20T14:16:00;10.40;99.90
38866;DHT22;62686;48.984;8.394;2022-11-20T14:18:28;10.00;99.90
38866;DHT22;62686;48.984;8.394;2022-11-20T14:21:00;9.80;1.00
38866;DHT22;62686;48.984;8.394;2022-11-20T14:23:29;9.70;99.90
38866;DHT22;62686;48.984;8.394;2022-11-20T14:25:57;9.60;1.00
38866;DHT22;62686;48.984;8.394;2022-11-20T14:28:28;9.70;1.00
38866;DHT22;62686;48.984;8.394;2022-11-20T14:30:57;9.70;1.00
38866;DHT22;62686;48.984;8.394;2022-11-20T14:33:26;9.70;99.90
38866;DHT22;62686;48.984;8.394;2022-11-20T14:35:55;9.50;1.00
38866;DHT22;62686;48.984;8.394;2022-11-20T14:38:28;9.40;99.90
38866;DHT22;62686;48.984;8.394;2022-11-20T14:41:06;9.30;1.00
38866;DHT22;62686;48.984;8.394;2022-11-20T14:43:36;9.20;1.00
38866;DHT22;62686;48.984;8.394;2022-11-20T14:46:08;9.00;1.00
38866;DHT22;62686;48.984;8.394;2022-11-20T14:48:40;8.90;1.00
38866;DHT22;62686;48.984;8.394;2022-11-20T14:51:10;8.80;1.00
38866;DHT22;62686;48.984;8.394;2022-11-20T14:53:40;8.80;1.00
38866;DHT22;62686;48.984;8.394;2022-11-20T14:56:08;8.70;1.00
38866;DHT22;62686;48.984;8.394;2022-11-20T14:58:36;8.50;1.00
38866;DHT22;62686;48.984;8.394;2022-11-20T15:01:06;8.60;1.00
38866;DHT22;62686;48.984;8.394;2022-11-20T15:03:36;8.50;1.00
38866;DHT22;62686;48.984;8.394;2022-11-20T15:06:06;8.40;1.00
38866;DHT22;62686;48.984;8.394;2022-11-20T15:08:35;8.40;1.00
38866;DHT22;62686;48.984;8.394;2022-11-20T15:11:16;8.40;1.00
38866;DHT22;62686;48.984;8.394;2022-11-20T15:13:46;8.20;1.00
38866;DHT22;62686;48.984;8.394;2022-11-20T15:16:19;8.20;1.00
38866;DHT22;62686;48.984;8.394;2022-11-20T15:18:48;8.10;1.00
38866;DHT22;62686;48.984;8.394;2022-11-20T15:21:18;8.10;1.00
38866;DHT22;62686;48.984;8.394;2022-11-20T15:23:47;8.10;1.00
38866;DHT22;62686;48.984;8.394;2022-11-20T15:26:22;8.10;1.00
38866;DHT22;62686;48.984;8.394;2022-11-20T15:28:52;8.00;1.00
38866;DHT22;62686;48.984;8.394;2022-11-20T15:31:22;7.90;1.00
38866;DHT22;62686;48.984;8.394;2022-11-20T15:33:50;8.00;1.00
38866;DHT22;62686;48.984;8.394;2022-11-20T15:36:19;8.00;1.00
38866;DHT22;62686;48.984;8.394;2022-11-20T15:38:47;8.00;1.00
38866;DHT22;62686;48.984;8.394;2022-11-20T15:41:17;7.90;1.00
38866;DHT22;62686;48.984;8.394;2022-11-20T15:43:45;8.00;1.00
38866;DHT22;62686;48.984;8.394;2022-11-20T15:46:15;8.00;1.00
38866;DHT22;62686;48.984;8.394;2022-11-20T15:48:53;8.00;1.00
38866;DHT22;62686;48.984;8.394;2022-11-20T15:51:26;8.00;1.00
38866;DHT22;62686;48.984;8.394;2022-11-20T15:53:55;8.10;1.00
38866;DHT22;62686;48.984;8.394;2022-11-20T15:56:25;8.00;1.00
38866;DHT22;62686;48.984;8.394;2022-11-20T15:58:54;8.10;1.00
38866;DHT22;62686;48.984;8.394;2022-11-20T16:01:22;8.10;1.00
38866;DHT22;62686;48.984;8.394;2022-11-20T16:03:50;8.10;1.00
38866;DHT22;62686;48.984;8.394;2022-11-20T16:06:18;8.10;1.00
38866;DHT22;62686;48.984;8.394;2022-11-20T16:08:46;8.20;1.00
38866;DHT22;62686;48.984;8.394;2022-11-20T16:11:16;8.20;1.00
38866;DHT22;62686;48.984;8.394;2022-11-20T16:13:46;8.20;1.00
38866;DHT22;62686;48.984;8.394;2022-11-20T16:16:33;8.20;1.00
38866;DHT22;62686;48.984;8.394;2022-11-20T16:19:02;8.10;1.00
38866;DHT22;62686;48.984;8.394;2022-11-20T16:21:30;8.10;1.00
38866;DHT22;62686;48.984;8.394;2022-11-20T16:24:00;8.10;1.00